PST,Max TemperatureF,Mean TemperatureF,Min TemperatureF,Max Dew PointF,MeanDew PointF,Min DewpointF,Max Humidity, Mean Humidity, Min Humidity, Max Sea Level PressureIn, Mean Sea Level PressureIn, Min Sea Level PressureIn, Max VisibilityMiles, Mean VisibilityMiles, Min VisibilityMiles, Max Wind SpeedMPH, Mean Wind SpeedMPH, Max Gust SpeedMPH,PrecipitationIn, CloudCover, Events, WindDirDegrees
2012-11-1,60,56,53,54,50,46,94,80,63,30.03,29.87,29.68,10,10,5,13,5,18,0.14,8,,161
2012-11-2,57,54,51,52,50,48,94,85,77,30.05,30.01,29.97,10,10,2,12,4,16,0.11,6,,150
2012-11-3,60,56,53,55,53,50,94,87,77,30.17,30.08,29.99,10,8,2,16,7,22,0.10,8,,158
2012-11-4,66,60,55,57,56,54,94,82,73,30.30,30.24,30.17,10,10,10,16,6,22,0.01,7,,159
2012-11-5,62,55,48,57,48,45,94,75,55,30.38,30.30,30.15,10,10,2,10,3,,0.00,3,,350
2012-11-6,55,52,48,52,49,45,94,87,76,30.14,30.07,30.03,10,7,0,12,2,17,0.01,8,,160
2012-11-7,53,45,37,46,40,36,93,77,51,30.18,30.11,29.94,10,10,7,8,1,,0.01,4,,164
2012-11-8,48,40,33,39,35,28,93,83,66,29.94,29.83,29.78,10,9,1,12,2,,0.00,3,,342
2012-11-9,48,39,30,37,33,27,93,84,66,29.95,29.89,29.86,10,7,0,7,1,,0.00,5,,145
2012-11-10,44,37,30,36,31,27,93,83,66,30.23,30.11,29.96,10,6,0,10,1,,0.00,6,,166
2012-11-11,48,40,33,43,38,30,87,79,71,30.24,30.19,30.11,10,10,9,20,7,32,0.49,8,,143
2012-11-12,51,50,48,46,45,43,87,83,76,30.25,30.17,30.10,10,10,7,22,11,32,0.04,8,,150
2012-11-13,53,50,48,46,46,46,93,83,77,30.25,30.19,30.15,10,10,8,10,6,,0.02,7,,155
2012-11-14,57,48,39,48,44,36,93,84,67,30.31,30.26,30.22,10,8,2,7,2,,0.01,5,,121
2012-11-15,48,42,37,41,37,34,93,82,71,30.24,30.06,29.95,10,10,3,8,2,,0.00,5,,348
2012-11-16,48,42,37,43,39,36,93,82,71,29.96,29.86,29.72,10,10,2,15,5,21,0.02,7,,146
2012-11-17,48,46,44,45,41,39,87,82,71,29.78,29.65,29.54,10,10,3,16,10,24,0.40,7,,150
2012-11-18,51,48,44,45,41,37,87,77,67,29.80,29.71,29.58,10,10,6,30,16,44,1.08,8,,149
2012-11-19,55,52,50,50,48,45,88,81,77,29.72,29.57,29.46,10,9,5,25,19,40,1.96,7,,156
2012-11-20,55,50,46,46,43,39,87,75,62,29.72,29.66,29.55,10,10,7,15,9,28,0.35,7,,146
2012-11-21,50,44,37,43,39,34,93,80,66,30.32,29.98,29.56,10,10,8,17,9,28,0.29,6,,161
2012-11-22,50,42,35,39,37,32,93,79,66,30.36,30.31,30.24,10,10,5,10,4,,0.00,2,,146
2012-11-23,51,48,44,46,42,36,93,81,66,30.25,30.17,30.09,10,10,2,17,10,26,0.67,8,,156
2012-11-24,50,44,39,46,42,36,93,88,76,30.28,30.23,30.17,10,7,0,6,0,,0.01,7,,353
2012-11-25,48,40,33,39,36,30,93,82,66,30.31,30.25,30.16,10,9,1,13,3,16,0.00,4,,355
2012-11-26,48,38,28,36,31,27,93,83,62,30.16,30.09,30.02,10,10,5,7,1,,0.00,0,,334
2012-11-27,48,39,30,36,31,27,93,85,62,30.10,30.02,29.89,10,9,5,6,0,,0.00,1,,143
2012-11-28,48,40,33,41,36,30,93,81,71,29.90,29.72,29.59,10,9,6,14,3,20,0.01,5,,138
2012-11-29,53,48,42,45,41,36,93,80,67,29.70,29.59,29.47,10,10,5,15,9,25,0.15,8,,150
2012-11-30,55,50,44,48,45,41,93,83,72,29.49,29.45,29.40,10,10,6,20,10,31,1.06,7,,156